Matthews, MO

5:07 AM CDT on April 21, 2015 (GMT -0500)
Cape Girardeau Regional | | Change Station
CLOSE
Current Station
Airport
Location: Cape Girardeau,
Elevation: 341 ft
Nearby Weather Stations
Active Advisory: Flood Advisory Active Notice: Local Storm Report

Elev 341 ft 37.23 °N, 89.57 °W | Updated 14 minutes ago

Clear
Clear
43 °F
Feels Like 40 °F
N
5
Wind Variable Wind from SW

Today
High -- | Low -- °F
--% Chance of Precip.
Yesterday
High -- | Low -- °F
Precip. -- in
6:16 AM 7:37 PM
Waxing Crescent, 9% visible
Pressure 29.91 in
Visibility 10.0 miles
Clouds Clear
Windchill 40 °F
Dew Point 37 °F
Humidity 80%
Rainfall 0.00 in
Snow Depth Not available.
UV 0 out of 12
Pollen 6.00 out of 12
Air Quality Not available.
Flu Activity Local Activity
METAR KCGI 210953Z AUTO 23004KT 10SM CLR 06/03 A2990 RMK AO2 SLP126 T00610028 TSNO

More Conditions Fewer Conditions

Pressure 29.91 in
Visibility 10.0 miles
Clouds Clear
Windchill 40 °F
Dew Point 37 °F
Humidity 80%
Rainfall 0.00 in
Snow Depth Not available.
UV 0 out of 12
Pollen 6.00 out of 12
Air Quality Not available.
Flu Activity Local Activity
METAR KCGI 210953Z AUTO 23004KT 10SM CLR 06/03 A2990 RMK AO2 SLP126 T00610028 TSNO

More Conditions Fewer Conditions

10-Day Weather Forecast

Almanac

Astronomy

Apr. 21, 2015 Rise Set
Actual Time
Civil Twilight
Nautical Twilight
Astronomical Twilight
Moon
Length of Visible Light
Length of Day
Tomorrow will be .
, % of the Moon is Illuminated

Today's Extremes

State Highs State Lows

Community

WunderPhotos

Upload Photos

1,815,337 photos uploaded!

WunderBlogs® & News

Nearby

Air Quality

  Air Quality AQ Index Pollutant
Not available.

Snow Depth

Station Depth Elevation

Earthquake Activity

City Distance Mag. Time & Date
Minimum magnitude displayed is 2.5.

Coastal Water Temperatures

Place Temperature

Stations

Nearby Weather Stations

Station Location Temp. Windchill Dew Point Humidity Wind Precip. Elev Updated Type
                   
Flood Advisory
Statement as of 8:52 PM CDT on April 20, 2015

The Flood Advisory continues for
the Mississippi River at Tiptonville
* until Friday April 24.
* At 8 PM Monday the stage was 34.1 feet.
* Flood stage is 37.0 feet.
* Forecast... the river will rise to near 35.0 feet Thursday April 23.
* At 35.0 feet... in Tennessee, a large section of Lake County,
Tennessee Road 79 is flooded near the levee. Most fields and
pastures south of Stewart, Missouri are covered by flood water.


Lat... Lon 3650 8957 3650 8938 3623 8948 3623 8977